Terminal Aerodrome Forecast
Issued by NWS

Home | Current Version | Previous Version | Text Only | Print | Product List | Glossary On
Versions: 1 2 3 4 5 6 7 8 9 10 11 12 13 14 15 16 17
000
FTUS44 KBMX 302327
TAFTCL
TAF
KTCL 302327Z 3100/3124 34007KT P6SM BKN080
     FM310200 00000KT P6SM SKC
      TEMPO 3109/3112 5SM BR
     FM311600 30006KT P6SM SCT050=

USA.gov is the U.S. government's official web portal to all federal, state and local government web resources and services.